sensor_id;sensor_type;location;lat;lon;timestamp;P1;durP1;ratioP1;P2;durP2;ratioP2
291;SDS011;23311;48.776;9.162;2024-01-11T00:00:03;46.03;;;28.87;;
291;SDS011;23311;48.776;9.162;2024-01-11T00:02:32;42.40;;;32.00;;
291;SDS011;23311;48.776;9.162;2024-01-11T00:05:04;40.17;;;28.67;;
291;SDS011;23311;48.776;9.162;2024-01-11T00:07:33;42.53;;;28.93;;
291;SDS011;23311;48.776;9.162;2024-01-11T00:10:02;42.70;;;30.60;;
291;SDS011;23311;48.776;9.162;2024-01-11T00:12:31;39.17;;;28.27;;
291;SDS011;23311;48.776;9.162;2024-01-11T00:15:01;39.27;;;29.43;;
291;SDS011;23311;48.776;9.162;2024-01-11T00:17:29;36.63;;;29.10;;
291;SDS011;23311;48.776;9.162;2024-01-11T00:19:57;40.80;;;28.77;;
291;SDS011;23311;48.776;9.162;2024-01-11T00:22:26;36.93;;;29.60;;
291;SDS011;23311;48.776;9.162;2024-01-11T00:24:55;39.80;;;28.83;;
291;SDS011;23311;48.776;9.162;2024-01-11T00:27:23;34.57;;;27.60;;
291;SDS011;23311;48.776;9.162;2024-01-11T00:29:51;41.00;;;30.70;;
291;SDS011;23311;48.776;9.162;2024-01-11T00:32:22;39.87;;;30.17;;
291;SDS011;23311;48.776;9.162;2024-01-11T00:34:50;38.47;;;28.90;;
291;SDS011;23311;48.776;9.162;2024-01-11T00:37:19;43.40;;;30.93;;
291;SDS011;23311;48.776;9.162;2024-01-11T00:39:47;40.63;;;31.13;;
291;SDS011;23311;48.776;9.162;2024-01-11T00:42:15;39.33;;;30.47;;
291;SDS011;23311;48.776;9.162;2024-01-11T00:44:44;35.87;;;29.07;;
291;SDS011;23311;48.776;9.162;2024-01-11T00:47:12;41.03;;;31.17;;
291;SDS011;23311;48.776;9.162;2024-01-11T00:49:42;42.70;;;32.20;;
291;SDS011;23311;48.776;9.162;2024-01-11T00:52:10;37.57;;;29.40;;
291;SDS011;23311;48.776;9.162;2024-01-11T00:54:40;43.57;;;31.20;;
291;SDS011;23311;48.776;9.162;2024-01-11T00:57:08;36.33;;;28.67;;
291;SDS011;23311;48.776;9.162;2024-01-11T00:59:36;42.93;;;32.13;;
291;SDS011;23311;48.776;9.162;2024-01-11T01:02:05;41.30;;;31.70;;
291;SDS011;23311;48.776;9.162;2024-01-11T01:04:34;39.10;;;29.40;;
291;SDS011;23311;48.776;9.162;2024-01-11T01:07:07;39.33;;;30.40;;
291;SDS011;23311;48.776;9.162;2024-01-11T01:09:35;44.10;;;31.87;;
291;SDS011;23311;48.776;9.162;2024-01-11T01:12:04;45.20;;;32.37;;
291;SDS011;23311;48.776;9.162;2024-01-11T01:14:33;43.63;;;32.20;;
291;SDS011;23311;48.776;9.162;2024-01-11T01:17:01;43.93;;;33.47;;
291;SDS011;23311;48.776;9.162;2024-01-11T01:19:30;43.83;;;33.63;;
291;SDS011;23311;48.776;9.162;2024-01-11T01:21:58;44.37;;;31.90;;
291;SDS011;23311;48.776;9.162;2024-01-11T01:24:28;50.37;;;35.70;;
291;SDS011;23311;48.776;9.162;2024-01-11T01:26:58;43.37;;;31.93;;
291;SDS011;23311;48.776;9.162;2024-01-11T01:29:27;45.10;;;34.27;;
291;SDS011;23311;48.776;9.162;2024-01-11T01:31:55;42.63;;;31.80;;
291;SDS011;23311;48.776;9.162;2024-01-11T01:34:23;45.63;;;31.70;;
291;SDS011;23311;48.776;9.162;2024-01-11T01:36:52;45.70;;;32.80;;
291;SDS011;23311;48.776;9.162;2024-01-11T01:39:20;42.43;;;31.17;;
291;SDS011;23311;48.776;9.162;2024-01-11T01:41:50;40.70;;;31.30;;
291;SDS011;23311;48.776;9.162;2024-01-11T01:44:18;41.93;;;31.77;;
291;SDS011;23311;48.776;9.162;2024-01-11T01:46:47;46.73;;;35.67;;
291;SDS011;23311;48.776;9.162;2024-01-11T01:49:16;40.80;;;33.20;;
291;SDS011;23311;48.776;9.162;2024-01-11T01:51:49;44.47;;;32.93;;
291;SDS011;23311;48.776;9.162;2024-01-11T01:54:18;43.77;;;32.17;;
291;SDS011;23311;48.776;9.162;2024-01-11T01:56:48;39.73;;;31.73;;
291;SDS011;23311;48.776;9.162;2024-01-11T01:59:17;45.37;;;34.00;;
291;SDS011;23311;48.776;9.162;2024-01-11T02:01:47;45.07;;;33.87;;
291;SDS011;23311;48.776;9.162;2024-01-11T02:04:16;47.33;;;34.73;;
291;SDS011;23311;48.776;9.162;2024-01-11T02:06:44;47.23;;;33.77;;
291;SDS011;23311;48.776;9.162;2024-01-11T02:09:14;42.43;;;31.80;;
291;SDS011;23311;48.776;9.162;2024-01-11T02:11:43;45.40;;;33.80;;
291;SDS011;23311;48.776;9.162;2024-01-11T02:14:13;40.93;;;32.40;;
291;SDS011;23311;48.776;9.162;2024-01-11T02:16:42;43.07;;;31.80;;
291;SDS011;23311;48.776;9.162;2024-01-11T02:19:11;43.30;;;31.90;;
291;SDS011;23311;48.776;9.162;2024-01-11T02:21:41;42.00;;;31.10;;
291;SDS011;23311;48.776;9.162;2024-01-11T02:24:12;40.43;;;32.83;;
291;SDS011;23311;48.776;9.162;2024-01-11T02:29:28;47.07;;;32.90;;
291;SDS011;23311;48.776;9.162;2024-01-11T02:31:57;47.27;;;32.57;;
291;SDS011;23311;48.776;9.162;2024-01-11T02:34:29;43.23;;;32.67;;
291;SDS011;23311;48.776;9.162;2024-01-11T02:36:58;41.20;;;31.33;;
291;SDS011;23311;48.776;9.162;2024-01-11T02:39:27;44.50;;;31.23;;
291;SDS011;23311;48.776;9.162;2024-01-11T02:41:57;44.40;;;31.70;;
291;SDS011;23311;48.776;9.162;2024-01-11T02:44:25;42.97;;;33.33;;
291;SDS011;23311;48.776;9.162;2024-01-11T02:46:54;49.40;;;34.93;;
291;SDS011;23311;48.776;9.162;2024-01-11T02:49:22;46.53;;;34.23;;
291;SDS011;23311;48.776;9.162;2024-01-11T02:51:50;45.57;;;35.27;;
291;SDS011;23311;48.776;9.162;2024-01-11T02:54:18;47.80;;;35.40;;
291;SDS011;23311;48.776;9.162;2024-01-11T02:56:48;48.93;;;34.80;;
291;SDS011;23311;48.776;9.162;2024-01-11T02:59:17;42.20;;;35.17;;
291;SDS011;23311;48.776;9.162;2024-01-11T03:01:45;51.07;;;36.37;;
291;SDS011;23311;48.776;9.162;2024-01-11T03:04:14;49.53;;;35.90;;
291;SDS011;23311;48.776;9.162;2024-01-11T03:06:43;51.93;;;36.90;;
291;SDS011;23311;48.776;9.162;2024-01-11T03:09:11;44.77;;;34.10;;
291;SDS011;23311;48.776;9.162;2024-01-11T03:11:40;51.13;;;34.43;;
291;SDS011;23311;48.776;9.162;2024-01-11T03:14:09;46.60;;;34.33;;
291;SDS011;23311;48.776;9.162;2024-01-11T03:16:37;45.63;;;35.70;;
291;SDS011;23311;48.776;9.162;2024-01-11T03:19:06;48.03;;;35.47;;
291;SDS011;23311;48.776;9.162;2024-01-11T03:21:37;49.07;;;35.97;;
291;SDS011;23311;48.776;9.162;2024-01-11T03:24:10;40.53;;;32.07;;
291;SDS011;23311;48.776;9.162;2024-01-11T03:26:38;47.63;;;34.57;;
291;SDS011;23311;48.776;9.162;2024-01-11T03:29:06;45.63;;;32.43;;
291;SDS011;23311;48.776;9.162;2024-01-11T03:31:36;47.67;;;35.20;;
291;SDS011;23311;48.776;9.162;2024-01-11T03:34:08;45.93;;;33.30;;
291;SDS011;23311;48.776;9.162;2024-01-11T03:36:37;48.53;;;37.53;;
291;SDS011;23311;48.776;9.162;2024-01-11T03:39:05;46.00;;;33.77;;
291;SDS011;23311;48.776;9.162;2024-01-11T03:41:34;49.50;;;35.80;;
291;SDS011;23311;48.776;9.162;2024-01-11T03:44:03;51.13;;;36.63;;
291;SDS011;23311;48.776;9.162;2024-01-11T03:46:31;50.57;;;34.77;;
291;SDS011;23311;48.776;9.162;2024-01-11T03:49:01;46.43;;;35.80;;
291;SDS011;23311;48.776;9.162;2024-01-11T03:51:29;44.40;;;35.27;;
291;SDS011;23311;48.776;9.162;2024-01-11T03:53:58;44.33;;;35.43;;
291;SDS011;23311;48.776;9.162;2024-01-11T03:56:26;47.13;;;36.87;;
291;SDS011;23311;48.776;9.162;2024-01-11T03:58:54;51.70;;;37.10;;
291;SDS011;23311;48.776;9.162;2024-01-11T04:01:23;47.10;;;36.80;;
291;SDS011;23311;48.776;9.162;2024-01-11T04:03:51;52.03;;;39.50;;
291;SDS011;23311;48.776;9.162;2024-01-11T04:06:21;46.73;;;36.13;;
291;SDS011;23311;48.776;9.162;2024-01-11T04:08:51;51.93;;;37.83;;
291;SDS011;23311;48.776;9.162;2024-01-11T04:11:19;49.43;;;38.00;;
291;SDS011;23311;48.776;9.162;2024-01-11T04:13:47;45.53;;;34.10;;
291;SDS011;23311;48.776;9.162;2024-01-11T04:16:15;52.70;;;36.30;;
291;SDS011;23311;48.776;9.162;2024-01-11T04:18:44;50.17;;;38.00;;
291;SDS011;23311;48.776;9.162;2024-01-11T04:21:21;51.53;;;37.47;;
291;SDS011;23311;48.776;9.162;2024-01-11T04:23:50;61.17;;;41.03;;
291;SDS011;23311;48.776;9.162;2024-01-11T04:26:18;52.70;;;38.10;;
291;SDS011;23311;48.776;9.162;2024-01-11T04:28:47;49.97;;;37.37;;
291;SDS011;23311;48.776;9.162;2024-01-11T04:31:16;48.60;;;36.33;;
291;SDS011;23311;48.776;9.162;2024-01-11T04:33:45;52.73;;;36.70;;
291;SDS011;23311;48.776;9.162;2024-01-11T04:36:14;49.90;;;36.70;;
291;SDS011;23311;48.776;9.162;2024-01-11T04:38:43;48.77;;;37.90;;
291;SDS011;23311;48.776;9.162;2024-01-11T04:41:12;56.10;;;40.37;;
291;SDS011;23311;48.776;9.162;2024-01-11T04:43:42;55.97;;;40.23;;
291;SDS011;23311;48.776;9.162;2024-01-11T04:46:13;51.07;;;39.10;;
291;SDS011;23311;48.776;9.162;2024-01-11T04:48:43;52.53;;;38.07;;
291;SDS011;23311;48.776;9.162;2024-01-11T04:51:12;50.97;;;37.20;;
291;SDS011;23311;48.776;9.162;2024-01-11T04:53:42;49.10;;;38.63;;
291;SDS011;23311;48.776;9.162;2024-01-11T04:56:12;52.30;;;38.27;;
291;SDS011;23311;48.776;9.162;2024-01-11T04:58:43;53.70;;;38.70;;
291;SDS011;23311;48.776;9.162;2024-01-11T05:01:12;51.50;;;38.27;;
291;SDS011;23311;48.776;9.162;2024-01-11T05:03:42;53.50;;;38.93;;
291;SDS011;23311;48.776;9.162;2024-01-11T05:06:14;53.47;;;39.10;;
291;SDS011;23311;48.776;9.162;2024-01-11T05:08:46;52.60;;;38.17;;
291;SDS011;23311;48.776;9.162;2024-01-11T05:11:15;53.97;;;38.67;;
291;SDS011;23311;48.776;9.162;2024-01-11T05:13:44;52.73;;;39.77;;
291;SDS011;23311;48.776;9.162;2024-01-11T05:16:18;51.10;;;38.13;;
291;SDS011;23311;48.776;9.162;2024-01-11T05:18:47;51.97;;;40.50;;
291;SDS011;23311;48.776;9.162;2024-01-11T05:21:15;53.97;;;38.23;;
291;SDS011;23311;48.776;9.162;2024-01-11T05:23:44;51.33;;;37.07;;
291;SDS011;23311;48.776;9.162;2024-01-11T05:26:14;49.50;;;34.80;;
291;SDS011;23311;48.776;9.162;2024-01-11T05:28:43;50.77;;;37.00;;
291;SDS011;23311;48.776;9.162;2024-01-11T05:31:13;50.80;;;36.83;;
291;SDS011;23311;48.776;9.162;2024-01-11T05:33:43;52.93;;;36.93;;
291;SDS011;23311;48.776;9.162;2024-01-11T05:36:12;49.17;;;36.83;;
291;SDS011;23311;48.776;9.162;2024-01-11T05:38:40;50.93;;;38.07;;
291;SDS011;23311;48.776;9.162;2024-01-11T05:41:11;49.33;;;36.00;;
291;SDS011;23311;48.776;9.162;2024-01-11T05:43:39;48.73;;;35.80;;
291;SDS011;23311;48.776;9.162;2024-01-11T05:46:09;45.30;;;34.43;;
291;SDS011;23311;48.776;9.162;2024-01-11T05:48:38;52.10;;;34.20;;
291;SDS011;23311;48.776;9.162;2024-01-11T05:51:07;49.67;;;35.73;;
291;SDS011;23311;48.776;9.162;2024-01-11T05:53:36;46.43;;;34.70;;
291;SDS011;23311;48.776;9.162;2024-01-11T05:56:07;41.83;;;33.07;;
291;SDS011;23311;48.776;9.162;2024-01-11T05:58:38;50.33;;;35.20;;
291;SDS011;23311;48.776;9.162;2024-01-11T06:01:07;53.30;;;36.57;;
291;SDS011;23311;48.776;9.162;2024-01-11T06:03:36;51.00;;;36.33;;
291;SDS011;23311;48.776;9.162;2024-01-11T06:06:05;53.30;;;38.27;;
291;SDS011;23311;48.776;9.162;2024-01-11T06:08:34;48.73;;;38.60;;
291;SDS011;23311;48.776;9.162;2024-01-11T06:11:02;54.63;;;39.53;;
291;SDS011;23311;48.776;9.162;2024-01-11T06:13:31;47.73;;;37.13;;
291;SDS011;23311;48.776;9.162;2024-01-11T06:16:01;50.00;;;38.17;;
291;SDS011;23311;48.776;9.162;2024-01-11T06:18:29;50.27;;;38.10;;
291;SDS011;23311;48.776;9.162;2024-01-11T06:20:58;52.10;;;39.00;;
291;SDS011;23311;48.776;9.162;2024-01-11T06:23:26;50.03;;;38.67;;
291;SDS011;23311;48.776;9.162;2024-01-11T06:25:54;49.47;;;36.80;;
291;SDS011;23311;48.776;9.162;2024-01-11T06:28:23;51.40;;;39.70;;
291;SDS011;23311;48.776;9.162;2024-01-11T06:30:51;55.23;;;41.37;;
291;SDS011;23311;48.776;9.162;2024-01-11T06:33:22;48.13;;;36.93;;
291;SDS011;23311;48.776;9.162;2024-01-11T06:35:50;49.93;;;38.00;;
291;SDS011;23311;48.776;9.162;2024-01-11T06:38:18;54.13;;;37.23;;
291;SDS011;23311;48.776;9.162;2024-01-11T06:40:47;49.50;;;37.27;;
291;SDS011;23311;48.776;9.162;2024-01-11T06:43:16;51.17;;;36.93;;
291;SDS011;23311;48.776;9.162;2024-01-11T06:45:44;48.67;;;36.03;;
291;SDS011;23311;48.776;9.162;2024-01-11T06:48:12;47.27;;;36.70;;
291;SDS011;23311;48.776;9.162;2024-01-11T06:50:42;50.83;;;37.17;;
291;SDS011;23311;48.776;9.162;2024-01-11T06:53:11;48.60;;;36.63;;
291;SDS011;23311;48.776;9.162;2024-01-11T06:55:39;54.90;;;38.30;;
291;SDS011;23311;48.776;9.162;2024-01-11T06:58:09;50.30;;;37.13;;
291;SDS011;23311;48.776;9.162;2024-01-11T07:00:38;50.23;;;38.37;;
291;SDS011;23311;48.776;9.162;2024-01-11T07:03:10;56.93;;;40.13;;
291;SDS011;23311;48.776;9.162;2024-01-11T07:05:39;53.63;;;41.70;;
291;SDS011;23311;48.776;9.162;2024-01-11T07:08:09;50.73;;;39.07;;
291;SDS011;23311;48.776;9.162;2024-01-11T07:10:37;54.67;;;38.33;;
291;SDS011;23311;48.776;9.162;2024-01-11T07:13:05;54.87;;;38.87;;
291;SDS011;23311;48.776;9.162;2024-01-11T07:15:34;57.00;;;41.20;;
291;SDS011;23311;48.776;9.162;2024-01-11T07:18:02;55.23;;;39.27;;
291;SDS011;23311;48.776;9.162;2024-01-11T07:20:31;53.17;;;40.37;;
291;SDS011;23311;48.776;9.162;2024-01-11T07:23:00;56.13;;;40.50;;
291;SDS011;23311;48.776;9.162;2024-01-11T07:25:30;60.70;;;42.73;;
291;SDS011;23311;48.776;9.162;2024-01-11T07:27:58;58.77;;;41.50;;
291;SDS011;23311;48.776;9.162;2024-01-11T07:30:27;57.17;;;41.90;;
291;SDS011;23311;48.776;9.162;2024-01-11T07:32:55;51.97;;;39.57;;
291;SDS011;23311;48.776;9.162;2024-01-11T07:35:23;57.07;;;39.33;;
291;SDS011;23311;48.776;9.162;2024-01-11T07:37:52;58.67;;;41.67;;
291;SDS011;23311;48.776;9.162;2024-01-11T07:40:20;54.47;;;40.53;;
291;SDS011;23311;48.776;9.162;2024-01-11T07:42:50;57.30;;;40.43;;
291;SDS011;23311;48.776;9.162;2024-01-11T07:45:18;57.77;;;41.20;;
291;SDS011;23311;48.776;9.162;2024-01-11T07:47:47;58.27;;;40.10;;
291;SDS011;23311;48.776;9.162;2024-01-11T07:50:15;54.67;;;39.90;;
291;SDS011;23311;48.776;9.162;2024-01-11T07:52:43;55.07;;;39.27;;
291;SDS011;23311;48.776;9.162;2024-01-11T07:55:12;53.33;;;37.47;;
291;SDS011;23311;48.776;9.162;2024-01-11T07:57:40;59.23;;;41.93;;
291;SDS011;23311;48.776;9.162;2024-01-11T08:00:10;55.57;;;37.70;;
291;SDS011;23311;48.776;9.162;2024-01-11T08:02:38;53.90;;;39.97;;
291;SDS011;23311;48.776;9.162;2024-01-11T08:05:07;57.53;;;39.93;;
291;SDS011;23311;48.776;9.162;2024-01-11T08:07:36;52.00;;;39.00;;
291;SDS011;23311;48.776;9.162;2024-01-11T08:10:04;50.53;;;37.50;;
291;SDS011;23311;48.776;9.162;2024-01-11T08:12:35;51.70;;;39.33;;
291;SDS011;23311;48.776;9.162;2024-01-11T08:15:04;56.00;;;39.77;;
291;SDS011;23311;48.776;9.162;2024-01-11T08:17:34;54.73;;;38.27;;
291;SDS011;23311;48.776;9.162;2024-01-11T08:20:04;48.30;;;38.00;;
291;SDS011;23311;48.776;9.162;2024-01-11T08:22:34;55.03;;;40.30;;
291;SDS011;23311;48.776;9.162;2024-01-11T08:25:04;52.30;;;38.00;;
291;SDS011;23311;48.776;9.162;2024-01-11T08:27:32;55.63;;;40.30;;
291;SDS011;23311;48.776;9.162;2024-01-11T08:30:01;51.40;;;37.20;;
291;SDS011;23311;48.776;9.162;2024-01-11T08:32:33;52.40;;;37.40;;
291;SDS011;23311;48.776;9.162;2024-01-11T08:35:05;46.20;;;36.70;;
291;SDS011;23311;48.776;9.162;2024-01-11T08:37:37;51.77;;;36.60;;
291;SDS011;23311;48.776;9.162;2024-01-11T08:40:06;50.17;;;37.50;;
291;SDS011;23311;48.776;9.162;2024-01-11T08:42:36;46.83;;;37.13;;
291;SDS011;23311;48.776;9.162;2024-01-11T08:45:06;50.50;;;36.50;;
291;SDS011;23311;48.776;9.162;2024-01-11T08:47:35;46.40;;;35.60;;
291;SDS011;23311;48.776;9.162;2024-01-11T08:50:06;51.50;;;37.70;;
291;SDS011;23311;48.776;9.162;2024-01-11T08:52:34;50.50;;;36.40;;
291;SDS011;23311;48.776;9.162;2024-01-11T08:55:05;51.80;;;36.33;;
291;SDS011;23311;48.776;9.162;2024-01-11T08:57:34;50.67;;;36.73;;
291;SDS011;23311;48.776;9.162;2024-01-11T09:00:04;50.27;;;37.37;;
291;SDS011;23311;48.776;9.162;2024-01-11T09:02:33;47.07;;;35.80;;
291;SDS011;23311;48.776;9.162;2024-01-11T09:05:04;52.13;;;35.33;;
291;SDS011;23311;48.776;9.162;2024-01-11T09:07:35;50.63;;;34.70;;
291;SDS011;23311;48.776;9.162;2024-01-11T09:10:04;49.20;;;38.53;;
291;SDS011;23311;48.776;9.162;2024-01-11T09:12:35;49.23;;;34.50;;
291;SDS011;23311;48.776;9.162;2024-01-11T09:15:03;44.87;;;34.30;;
291;SDS011;23311;48.776;9.162;2024-01-11T09:17:32;48.53;;;36.20;;
291;SDS011;23311;48.776;9.162;2024-01-11T09:20:00;44.50;;;34.43;;
291;SDS011;23311;48.776;9.162;2024-01-11T09:22:30;40.97;;;34.57;;
291;SDS011;23311;48.776;9.162;2024-01-11T09:24:59;43.63;;;34.50;;
291;SDS011;23311;48.776;9.162;2024-01-11T09:27:27;46.67;;;33.30;;
291;SDS011;23311;48.776;9.162;2024-01-11T09:29:55;45.70;;;35.40;;
291;SDS011;23311;48.776;9.162;2024-01-11T09:32:23;48.10;;;33.70;;
291;SDS011;23311;48.776;9.162;2024-01-11T09:34:52;45.93;;;34.23;;
291;SDS011;23311;48.776;9.162;2024-01-11T09:37:20;43.77;;;33.80;;
291;SDS011;23311;48.776;9.162;2024-01-11T09:39:50;46.07;;;33.63;;
291;SDS011;23311;48.776;9.162;2024-01-11T09:42:18;44.27;;;33.63;;
291;SDS011;23311;48.776;9.162;2024-01-11T09:44:46;44.63;;;32.87;;
291;SDS011;23311;48.776;9.162;2024-01-11T09:47:15;46.47;;;33.90;;
291;SDS011;23311;48.776;9.162;2024-01-11T09:49:44;43.83;;;32.90;;
291;SDS011;23311;48.776;9.162;2024-01-11T09:52:14;43.00;;;33.30;;
291;SDS011;23311;48.776;9.162;2024-01-11T09:54:44;43.30;;;33.40;;
291;SDS011;23311;48.776;9.162;2024-01-11T09:57:13;42.80;;;32.70;;
291;SDS011;23311;48.776;9.162;2024-01-11T09:59:45;44.03;;;33.10;;
291;SDS011;23311;48.776;9.162;2024-01-11T10:02:13;46.33;;;34.90;;
291;SDS011;23311;48.776;9.162;2024-01-11T10:04:42;48.23;;;34.27;;
291;SDS011;23311;48.776;9.162;2024-01-11T10:07:11;45.53;;;32.63;;
291;SDS011;23311;48.776;9.162;2024-01-11T10:09:39;41.13;;;32.07;;
291;SDS011;23311;48.776;9.162;2024-01-11T10:12:08;47.97;;;33.50;;
291;SDS011;23311;48.776;9.162;2024-01-11T10:14:38;39.37;;;32.70;;
291;SDS011;23311;48.776;9.162;2024-01-11T10:17:06;50.67;;;33.77;;
291;SDS011;23311;48.776;9.162;2024-01-11T10:19:39;46.73;;;34.33;;
291;SDS011;23311;48.776;9.162;2024-01-11T10:22:07;44.97;;;33.83;;
291;SDS011;23311;48.776;9.162;2024-01-11T10:24:39;48.43;;;34.50;;
291;SDS011;23311;48.776;9.162;2024-01-11T10:27:08;44.80;;;33.40;;
291;SDS011;23311;48.776;9.162;2024-01-11T10:29:37;46.37;;;33.10;;
291;SDS011;23311;48.776;9.162;2024-01-11T10:32:07;42.30;;;32.70;;
291;SDS011;23311;48.776;9.162;2024-01-11T10:34:36;45.37;;;35.40;;
291;SDS011;23311;48.776;9.162;2024-01-11T10:37:07;43.20;;;33.80;;
291;SDS011;23311;48.776;9.162;2024-01-11T10:39:37;45.10;;;34.33;;
291;SDS011;23311;48.776;9.162;2024-01-11T10:42:07;41.07;;;33.47;;
291;SDS011;23311;48.776;9.162;2024-01-11T10:44:39;45.40;;;31.07;;
291;SDS011;23311;48.776;9.162;2024-01-11T10:47:15;38.67;;;31.63;;
291;SDS011;23311;48.776;9.162;2024-01-11T10:49:47;41.20;;;31.20;;
291;SDS011;23311;48.776;9.162;2024-01-11T10:52:17;43.70;;;32.70;;
291;SDS011;23311;48.776;9.162;2024-01-11T10:54:50;44.20;;;33.83;;
291;SDS011;23311;48.776;9.162;2024-01-11T10:57:19;39.70;;;32.40;;
291;SDS011;23311;48.776;9.162;2024-01-11T10:59:49;48.23;;;35.10;;
291;SDS011;23311;48.776;9.162;2024-01-11T11:02:20;47.23;;;31.67;;
291;SDS011;23311;48.776;9.162;2024-01-11T11:04:50;45.27;;;34.17;;
291;SDS011;23311;48.776;9.162;2024-01-11T11:07:21;40.87;;;31.93;;
291;SDS011;23311;48.776;9.162;2024-01-11T11:09:49;41.23;;;31.87;;
291;SDS011;23311;48.776;9.162;2024-01-11T11:12:20;42.50;;;33.17;;
291;SDS011;23311;48.776;9.162;2024-01-11T11:14:51;43.60;;;31.43;;
291;SDS011;23311;48.776;9.162;2024-01-11T11:17:20;43.30;;;31.97;;
291;SDS011;23311;48.776;9.162;2024-01-11T11:19:49;47.43;;;34.30;;
291;SDS011;23311;48.776;9.162;2024-01-11T11:22:18;41.77;;;31.43;;
291;SDS011;23311;48.776;9.162;2024-01-11T11:24:47;41.90;;;31.73;;
291;SDS011;23311;48.776;9.162;2024-01-11T11:27:15;40.73;;;31.63;;
291;SDS011;23311;48.776;9.162;2024-01-11T11:29:46;41.67;;;31.13;;
291;SDS011;23311;48.776;9.162;2024-01-11T11:32:17;41.00;;;32.30;;
291;SDS011;23311;48.776;9.162;2024-01-11T11:34:45;57.20;;;33.80;;
291;SDS011;23311;48.776;9.162;2024-01-11T11:37:22;45.53;;;34.07;;
291;SDS011;23311;48.776;9.162;2024-01-11T11:39:50;40.13;;;31.87;;
291;SDS011;23311;48.776;9.162;2024-01-11T11:42:21;42.20;;;32.57;;
291;SDS011;23311;48.776;9.162;2024-01-11T11:44:51;46.03;;;33.67;;
291;SDS011;23311;48.776;9.162;2024-01-11T11:47:22;38.50;;;30.23;;
291;SDS011;23311;48.776;9.162;2024-01-11T11:49:58;42.77;;;32.87;;
291;SDS011;23311;48.776;9.162;2024-01-11T11:52:32;42.60;;;32.27;;
291;SDS011;23311;48.776;9.162;2024-01-11T11:55:02;45.27;;;32.70;;
291;SDS011;23311;48.776;9.162;2024-01-11T11:57:31;42.90;;;30.97;;
291;SDS011;23311;48.776;9.162;2024-01-11T12:00:01;43.23;;;33.30;;
291;SDS011;23311;48.776;9.162;2024-01-11T12:02:36;43.53;;;30.60;;
291;SDS011;23311;48.776;9.162;2024-01-11T12:05:05;39.13;;;32.37;;
291;SDS011;23311;48.776;9.162;2024-01-11T12:07:34;41.80;;;30.13;;
291;SDS011;23311;48.776;9.162;2024-01-11T12:10:02;38.03;;;29.90;;
291;SDS011;23311;48.776;9.162;2024-01-11T12:12:32;39.50;;;30.83;;
291;SDS011;23311;48.776;9.162;2024-01-11T12:15:03;42.07;;;32.17;;
291;SDS011;23311;48.776;9.162;2024-01-11T12:17:32;41.80;;;30.13;;
291;SDS011;23311;48.776;9.162;2024-01-11T12:20:02;42.23;;;31.60;;
291;SDS011;23311;48.776;9.162;2024-01-11T12:22:31;42.27;;;31.33;;
291;SDS011;23311;48.776;9.162;2024-01-11T12:24:59;46.40;;;31.60;;
291;SDS011;23311;48.776;9.162;2024-01-11T12:27:29;42.00;;;32.10;;
291;SDS011;23311;48.776;9.162;2024-01-11T12:29:58;39.67;;;31.63;;
291;SDS011;23311;48.776;9.162;2024-01-11T12:32:26;37.40;;;30.10;;
291;SDS011;23311;48.776;9.162;2024-01-11T12:34:56;45.90;;;31.17;;
291;SDS011;23311;48.776;9.162;2024-01-11T12:37:26;40.30;;;30.13;;
291;SDS011;23311;48.776;9.162;2024-01-11T12:39:58;38.40;;;29.80;;
291;SDS011;23311;48.776;9.162;2024-01-11T12:42:27;45.87;;;32.50;;
291;SDS011;23311;48.776;9.162;2024-01-11T12:44:55;37.90;;;30.07;;
291;SDS011;23311;48.776;9.162;2024-01-11T12:47:25;46.20;;;31.10;;
291;SDS011;23311;48.776;9.162;2024-01-11T12:49:54;41.20;;;31.87;;
291;SDS011;23311;48.776;9.162;2024-01-11T12:52:22;40.57;;;30.57;;
291;SDS011;23311;48.776;9.162;2024-01-11T12:54:55;42.30;;;31.43;;
291;SDS011;23311;48.776;9.162;2024-01-11T12:57:24;39.80;;;29.40;;
291;SDS011;23311;48.776;9.162;2024-01-11T12:59:53;37.63;;;28.47;;
291;SDS011;23311;48.776;9.162;2024-01-11T13:02:22;41.13;;;30.30;;
291;SDS011;23311;48.776;9.162;2024-01-11T13:04:51;38.27;;;30.57;;
291;SDS011;23311;48.776;9.162;2024-01-11T13:07:19;37.57;;;29.20;;
291;SDS011;23311;48.776;9.162;2024-01-11T13:09:49;40.67;;;30.07;;
291;SDS011;23311;48.776;9.162;2024-01-11T13:12:19;41.17;;;29.43;;
291;SDS011;23311;48.776;9.162;2024-01-11T13:14:48;39.33;;;29.50;;
291;SDS011;23311;48.776;9.162;2024-01-11T13:17:17;39.47;;;30.50;;
291;SDS011;23311;48.776;9.162;2024-01-11T13:19:46;43.63;;;30.70;;
291;SDS011;23311;48.776;9.162;2024-01-11T13:22:15;46.70;;;31.67;;
291;SDS011;23311;48.776;9.162;2024-01-11T13:24:44;43.43;;;30.43;;
291;SDS011;23311;48.776;9.162;2024-01-11T13:27:12;37.87;;;28.40;;
291;SDS011;23311;48.776;9.162;2024-01-11T13:29:42;41.90;;;29.90;;
291;SDS011;23311;48.776;9.162;2024-01-11T13:32:10;41.37;;;30.57;;
291;SDS011;23311;48.776;9.162;2024-01-11T13:34:38;38.73;;;29.23;;
291;SDS011;23311;48.776;9.162;2024-01-11T13:37:08;41.27;;;30.20;;
291;SDS011;23311;48.776;9.162;2024-01-11T13:39:38;40.33;;;30.50;;
291;SDS011;23311;48.776;9.162;2024-01-11T13:42:06;37.70;;;30.27;;
291;SDS011;23311;48.776;9.162;2024-01-11T13:44:36;38.53;;;30.30;;
291;SDS011;23311;48.776;9.162;2024-01-11T13:47:07;36.20;;;29.10;;
291;SDS011;23311;48.776;9.162;2024-01-11T13:49:35;38.50;;;28.90;;
291;SDS011;23311;48.776;9.162;2024-01-11T13:52:04;40.03;;;28.17;;
291;SDS011;23311;48.776;9.162;2024-01-11T13:54:33;40.23;;;29.27;;
291;SDS011;23311;48.776;9.162;2024-01-11T13:57:01;38.20;;;29.33;;
291;SDS011;23311;48.776;9.162;2024-01-11T13:59:30;36.90;;;29.63;;
291;SDS011;23311;48.776;9.162;2024-01-11T14:02:00;44.73;;;31.30;;
291;SDS011;23311;48.776;9.162;2024-01-11T14:04:30;41.23;;;31.13;;
291;SDS011;23311;48.776;9.162;2024-01-11T14:06:59;34.70;;;27.53;;
291;SDS011;23311;48.776;9.162;2024-01-11T14:09:29;36.67;;;29.07;;
291;SDS011;23311;48.776;9.162;2024-01-11T14:11:57;35.97;;;27.67;;
291;SDS011;23311;48.776;9.162;2024-01-11T14:14:26;39.37;;;29.50;;
291;SDS011;23311;48.776;9.162;2024-01-11T14:16:54;38.60;;;29.03;;
291;SDS011;23311;48.776;9.162;2024-01-11T14:19:22;37.20;;;28.30;;
291;SDS011;23311;48.776;9.162;2024-01-11T14:22:12;40.00;;;30.03;;
291;SDS011;23311;48.776;9.162;2024-01-11T14:24:41;40.47;;;32.70;;
291;SDS011;23311;48.776;9.162;2024-01-11T14:27:09;39.20;;;31.03;;
291;SDS011;23311;48.776;9.162;2024-01-11T14:29:38;43.00;;;32.40;;
291;SDS011;23311;48.776;9.162;2024-01-11T14:32:06;41.93;;;32.43;;
291;SDS011;23311;48.776;9.162;2024-01-11T14:34:37;41.43;;;33.27;;
291;SDS011;23311;48.776;9.162;2024-01-11T14:37:27;39.07;;;31.80;;
291;SDS011;23311;48.776;9.162;2024-01-11T14:39:56;46.90;;;34.80;;
291;SDS011;23311;48.776;9.162;2024-01-11T14:42:26;43.93;;;31.80;;
291;SDS011;23311;48.776;9.162;2024-01-11T14:44:54;42.80;;;33.07;;
291;SDS011;23311;48.776;9.162;2024-01-11T14:47:23;43.93;;;33.40;;
291;SDS011;23311;48.776;9.162;2024-01-11T14:49:52;43.57;;;34.67;;
291;SDS011;23311;48.776;9.162;2024-01-11T14:52:20;44.83;;;33.53;;
291;SDS011;23311;48.776;9.162;2024-01-11T14:54:50;42.03;;;32.60;;
291;SDS011;23311;48.776;9.162;2024-01-11T14:57:18;42.27;;;32.60;;
291;SDS011;23311;48.776;9.162;2024-01-11T14:59:47;43.23;;;33.33;;
291;SDS011;23311;48.776;9.162;2024-01-11T15:02:16;42.07;;;32.13;;